sensor_id;sensor_type;location;lat;lon;timestamp;pressure;altitude;pressure_sealevel;temperature;humidity
22582;BME280;47125;48.542;9.052;2023-02-20T00:07:15;97130.63;;;8.98;75.39
22582;BME280;47125;48.542;9.052;2023-02-20T00:17:18;97148.06;;;9.01;75.37
22582;BME280;47125;48.542;9.052;2023-02-20T00:27:21;97144.16;;;8.97;74.65
22582;BME280;47125;48.542;9.052;2023-02-20T00:37:25;97126.75;;;9.01;74.16
22582;BME280;47125;48.542;9.052;2023-02-20T00:47:27;97125.53;;;9.03;74.26
22582;BME280;47125;48.542;9.052;2023-02-20T00:57:31;97147.28;;;9.07;74.24
22582;BME280;47125;48.542;9.052;2023-02-20T01:07:34;97160.81;;;9.12;73.54
22582;BME280;47125;48.542;9.052;2023-02-20T01:17:38;97160.34;;;9.02;74.11
22582;BME280;47125;48.542;9.052;2023-02-20T01:27:40;97142.75;;;9.01;74.10
22582;BME280;47125;48.542;9.052;2023-02-20T01:37:44;97136.53;;;8.94;73.96
22582;BME280;47125;48.542;9.052;2023-02-20T01:47:47;97133.66;;;8.89;74.22
22582;BME280;47125;48.542;9.052;2023-02-20T01:57:51;97126.25;;;8.84;74.17
22582;BME280;47125;48.542;9.052;2023-02-20T02:07:55;97116.38;;;8.78;74.56
22582;BME280;47125;48.542;9.052;2023-02-20T02:18:18;97105.66;;;8.58;75.41
22582;BME280;47125;48.542;9.052;2023-02-20T02:28:45;97097.66;;;8.58;75.09
22582;BME280;47125;48.542;9.052;2023-02-20T02:38:54;97076.59;;;8.63;75.15
22582;BME280;47125;48.542;9.052;2023-02-20T02:49:00;97080.00;;;8.51;74.95
22582;BME280;47125;48.542;9.052;2023-02-20T02:59:08;97082.22;;;8.47;74.98
22582;BME280;47125;48.542;9.052;2023-02-20T03:09:12;97085.94;;;8.46;74.97
22582;BME280;47125;48.542;9.052;2023-02-20T03:19:18;97086.34;;;8.43;74.64
22582;BME280;47125;48.542;9.052;2023-02-20T03:29:24;97080.19;;;8.15;75.35
22582;BME280;47125;48.542;9.052;2023-02-20T03:39:30;97079.91;;;8.03;75.66
22582;BME280;47125;48.542;9.052;2023-02-20T03:49:51;97074.06;;;7.87;76.02
22582;BME280;47125;48.542;9.052;2023-02-20T03:59:56;97088.47;;;7.99;75.62
22582;BME280;47125;48.542;9.052;2023-02-20T04:10:05;97078.13;;;7.83;75.78
22582;BME280;47125;48.542;9.052;2023-02-20T04:20:10;97069.09;;;7.77;75.63
22582;BME280;47125;48.542;9.052;2023-02-20T04:30:13;97068.88;;;7.78;75.60
22582;BME280;47125;48.542;9.052;2023-02-20T04:40:19;97053.78;;;7.58;76.12
22582;BME280;47125;48.542;9.052;2023-02-20T04:50:22;97053.78;;;7.58;75.91
22582;BME280;47125;48.542;9.052;2023-02-20T05:00:26;97047.25;;;7.54;75.65
22582;BME280;47125;48.542;9.052;2023-02-20T05:10:29;97046.78;;;7.50;74.96
22582;BME280;47125;48.542;9.052;2023-02-20T05:20:34;97041.34;;;7.37;75.56
22582;BME280;47125;48.542;9.052;2023-02-20T05:30:54;97048.38;;;7.45;74.94
22582;BME280;47125;48.542;9.052;2023-02-20T05:40:58;97050.78;;;7.40;74.57
22582;BME280;47125;48.542;9.052;2023-02-20T05:51:00;97056.00;;;7.27;74.48
22582;BME280;47125;48.542;9.052;2023-02-20T06:01:04;97039.69;;;7.36;74.18
22582;BME280;47125;48.542;9.052;2023-02-20T06:11:07;97042.38;;;7.15;74.41
22582;BME280;47125;48.542;9.052;2023-02-20T06:21:12;97046.53;;;7.24;74.09
22582;BME280;47125;48.542;9.052;2023-02-20T06:31:18;97057.22;;;7.09;74.04
22582;BME280;47125;48.542;9.052;2023-02-20T06:41:22;97060.25;;;7.06;73.83
22582;BME280;47125;48.542;9.052;2023-02-20T06:51:26;97070.50;;;7.09;73.48
22582;BME280;47125;48.542;9.052;2023-02-20T07:01:35;97063.22;;;7.18;72.72
22582;BME280;47125;48.542;9.052;2023-02-20T07:11:39;97089.50;;;7.28;72.02
22582;BME280;47125;48.542;9.052;2023-02-20T07:21:43;97088.78;;;7.19;72.06
22582;BME280;47125;48.542;9.052;2023-02-20T07:31:47;97084.50;;;7.39;70.98
22582;BME280;47125;48.542;9.052;2023-02-20T07:41:51;97083.31;;;7.42;70.85
22582;BME280;47125;48.542;9.052;2023-02-20T07:51:53;97096.22;;;7.66;69.90
22582;BME280;47125;48.542;9.052;2023-02-20T08:01:57;97100.16;;;7.76;69.65
22582;BME280;47125;48.542;9.052;2023-02-20T08:12:00;97082.19;;;7.78;69.24
22582;BME280;47125;48.542;9.052;2023-02-20T08:22:04;97086.84;;;7.98;68.65
22582;BME280;47125;48.542;9.052;2023-02-20T08:32:08;97070.84;;;8.25;68.39
22582;BME280;47125;48.542;9.052;2023-02-20T08:42:14;97057.63;;;8.32;67.75
22582;BME280;47125;48.542;9.052;2023-02-20T08:52:17;97050.69;;;8.44;67.56
22582;BME280;47125;48.542;9.052;2023-02-20T09:02:22;97047.00;;;8.86;67.24
22582;BME280;47125;48.542;9.052;2023-02-20T09:12:28;97036.13;;;8.94;66.45
22582;BME280;47125;48.542;9.052;2023-02-20T09:22:33;97026.75;;;9.18;65.77
22582;BME280;47125;48.542;9.052;2023-02-20T09:32:35;97028.19;;;9.47;64.43
22582;BME280;47125;48.542;9.052;2023-02-20T09:42:42;97028.00;;;9.74;62.96
22582;BME280;47125;48.542;9.052;2023-02-20T09:52:49;97014.84;;;10.06;62.16
22582;BME280;47125;48.542;9.052;2023-02-20T10:03:00;97008.34;;;10.46;60.99
22582;BME280;47125;48.542;9.052;2023-02-20T10:13:14;97008.84;;;10.81;58.56
22582;BME280;47125;48.542;9.052;2023-02-20T10:23:31;96989.56;;;10.72;59.00
22582;BME280;47125;48.542;9.052;2023-02-20T10:33:37;97004.94;;;10.77;59.25
22582;BME280;47125;48.542;9.052;2023-02-20T10:43:45;96996.19;;;11.32;59.15
22582;BME280;47125;48.542;9.052;2023-02-20T10:53:51;96980.69;;;12.08;55.87
22582;BME280;47125;48.542;9.052;2023-02-20T11:03:58;96979.84;;;12.62;53.94
22582;BME280;47125;48.542;9.052;2023-02-20T11:14:08;96969.59;;;12.89;52.48
22582;BME280;47125;48.542;9.052;2023-02-20T11:24:24;96955.22;;;13.55;50.69
22582;BME280;47125;48.542;9.052;2023-02-20T11:34:29;96949.56;;;14.26;49.73
22582;BME280;47125;48.542;9.052;2023-02-20T11:44:34;96941.34;;;14.84;47.64
22582;BME280;47125;48.542;9.052;2023-02-20T11:54:37;96913.38;;;15.47;46.25
22582;BME280;47125;48.542;9.052;2023-02-20T12:04:41;96904.88;;;15.88;44.34
22582;BME280;47125;48.542;9.052;2023-02-20T12:14:44;96888.66;;;16.26;43.00
22582;BME280;47125;48.542;9.052;2023-02-20T12:24:53;96869.31;;;17.04;41.84
22582;BME280;47125;48.542;9.052;2023-02-20T12:35:15;96848.34;;;17.17;40.79
22582;BME280;47125;48.542;9.052;2023-02-20T12:45:24;96836.28;;;18.08;39.86
22582;BME280;47125;48.542;9.052;2023-02-20T12:55:30;96820.94;;;18.29;39.64
22582;BME280;47125;48.542;9.052;2023-02-20T13:05:36;96789.69;;;19.03;37.65
22582;BME280;47125;48.542;9.052;2023-02-20T13:15:39;96772.09;;;19.46;37.39
22582;BME280;47125;48.542;9.052;2023-02-20T13:25:47;96759.59;;;20.19;35.95
22582;BME280;47125;48.542;9.052;2023-02-20T13:35:50;96728.88;;;21.12;33.67
22582;BME280;47125;48.542;9.052;2023-02-20T13:46:14;96731.84;;;19.89;35.65
22582;BME280;47125;48.542;9.052;2023-02-20T13:56:21;96744.13;;;19.61;34.94
22582;BME280;47125;48.542;9.052;2023-02-20T14:06:25;96718.97;;;19.50;35.50
22582;BME280;47125;48.542;9.052;2023-02-20T14:16:29;96711.19;;;19.13;35.80
22582;BME280;47125;48.542;9.052;2023-02-20T14:26:33;96669.81;;;18.73;35.79
22582;BME280;47125;48.542;9.052;2023-02-20T14:36:39;96674.69;;;18.55;36.32
22582;BME280;47125;48.542;9.052;2023-02-20T14:46:45;96646.66;;;17.64;36.66
22582;BME280;47125;48.542;9.052;2023-02-20T14:56:49;96651.31;;;17.89;30.19
22582;BME280;47125;48.542;9.052;2023-02-20T15:06:54;96654.06;;;17.99;29.06
22582;BME280;47125;48.542;9.052;2023-02-20T15:17:05;96649.06;;;17.55;30.01
22582;BME280;47125;48.542;9.052;2023-02-20T15:27:10;96638.03;;;17.05;31.38
22582;BME280;47125;48.542;9.052;2023-02-20T15:37:15;96630.34;;;16.50;32.16
22582;BME280;47125;48.542;9.052;2023-02-20T15:47:26;96638.50;;;16.23;33.35
22582;BME280;47125;48.542;9.052;2023-02-20T15:57:28;96638.06;;;15.78;33.21
22582;BME280;47125;48.542;9.052;2023-02-20T16:07:32;96634.84;;;15.32;33.34
22582;BME280;47125;48.542;9.052;2023-02-20T16:17:35;96648.09;;;15.17;33.74
22582;BME280;47125;48.542;9.052;2023-02-20T16:27:38;96624.56;;;14.86;33.49
22582;BME280;47125;48.542;9.052;2023-02-20T16:37:41;96606.47;;;14.60;33.55
22582;BME280;47125;48.542;9.052;2023-02-20T16:47:45;96609.00;;;14.33;34.13
22582;BME280;47125;48.542;9.052;2023-02-20T16:57:49;96621.19;;;14.07;34.31
22582;BME280;47125;48.542;9.052;2023-02-20T17:07:54;96617.09;;;13.88;34.71
22582;BME280;47125;48.542;9.052;2023-02-20T17:17:56;96603.31;;;13.68;36.11
22582;BME280;47125;48.542;9.052;2023-02-20T17:28:00;96604.59;;;13.49;37.20
22582;BME280;47125;48.542;9.052;2023-02-20T17:38:03;96599.22;;;13.20;39.18
22582;BME280;47125;48.542;9.052;2023-02-20T17:48:07;96608.34;;;13.08;40.71
22582;BME280;47125;48.542;9.052;2023-02-20T17:58:09;96601.50;;;12.89;41.36
22582;BME280;47125;48.542;9.052;2023-02-20T18:08:13;96601.50;;;12.77;42.01
22582;BME280;47125;48.542;9.052;2023-02-20T18:18:16;96597.09;;;12.59;42.80
22582;BME280;47125;48.542;9.052;2023-02-20T18:28:20;96600.38;;;12.38;43.51
22582;BME280;47125;48.542;9.052;2023-02-20T18:38:23;96602.59;;;12.30;44.10
22582;BME280;47125;48.542;9.052;2023-02-20T18:48:27;96592.00;;;12.23;44.19
22582;BME280;47125;48.542;9.052;2023-02-20T18:58:29;96592.25;;;12.10;44.32
22582;BME280;47125;48.542;9.052;2023-02-20T19:08:33;96582.00;;;11.95;45.03
22582;BME280;47125;48.542;9.052;2023-02-20T19:18:35;96574.63;;;11.79;45.83
22582;BME280;47125;48.542;9.052;2023-02-20T19:28:52;96575.28;;;11.75;46.30
22582;BME280;47125;48.542;9.052;2023-02-20T19:38:54;96577.59;;;11.59;47.04
22582;BME280;47125;48.542;9.052;2023-02-20T19:48:58;96585.34;;;11.49;47.94
22582;BME280;47125;48.542;9.052;2023-02-20T19:59:00;96581.72;;;11.44;47.88
22582;BME280;47125;48.542;9.052;2023-02-20T20:09:04;96589.81;;;11.26;48.40
22582;BME280;47125;48.542;9.052;2023-02-20T20:19:23;96587.66;;;11.16;48.96
22582;BME280;47125;48.542;9.052;2023-02-20T20:29:27;96590.38;;;10.98;49.49
22582;BME280;47125;48.542;9.052;2023-02-20T20:39:30;96579.75;;;10.91;49.69
22582;BME280;47125;48.542;9.052;2023-02-20T20:49:34;96575.56;;;10.66;50.64
22582;BME280;47125;48.542;9.052;2023-02-20T20:59:39;96583.84;;;10.58;50.70
22582;BME280;47125;48.542;9.052;2023-02-20T21:09:43;96579.38;;;10.51;50.96
22582;BME280;47125;48.542;9.052;2023-02-20T21:19:45;96569.31;;;10.54;51.10
22582;BME280;47125;48.542;9.052;2023-02-20T21:29:49;96573.38;;;10.38;51.33
22582;BME280;47125;48.542;9.052;2023-02-20T21:39:52;96564.28;;;10.27;51.58
22582;BME280;47125;48.542;9.052;2023-02-20T21:49:56;96564.22;;;10.09;51.95
22582;BME280;47125;48.542;9.052;2023-02-20T21:59:59;96569.56;;;9.84;52.73
22582;BME280;47125;48.542;9.052;2023-02-20T22:10:02;96555.16;;;9.67;52.88
22582;BME280;47125;48.542;9.052;2023-02-20T22:20:22;96552.41;;;9.49;53.70
22582;BME280;47125;48.542;9.052;2023-02-20T22:30:45;96550.03;;;9.34;53.74
22582;BME280;47125;48.542;9.052;2023-02-20T22:41:05;96545.88;;;9.14;54.67
22582;BME280;47125;48.542;9.052;2023-02-20T22:51:27;96541.66;;;9.00;54.66
22582;BME280;47125;48.542;9.052;2023-02-20T23:01:47;96548.94;;;8.79;55.34
22582;BME280;47125;48.542;9.052;2023-02-20T23:12:09;96534.16;;;8.83;55.37
22582;BME280;47125;48.542;9.052;2023-02-20T23:22:30;96539.97;;;8.74;55.24
22582;BME280;47125;48.542;9.052;2023-02-20T23:32:51;96527.34;;;8.94;54.02
22582;BME280;47125;48.542;9.052;2023-02-20T23:43:11;96525.84;;;9.05;53.51
22582;BME280;47125;48.542;9.052;2023-02-20T23:53:34;96512.09;;;9.08;52.16
